createdAt,value
2018-04-25T00:00:45.327Z,86.90
2018-04-25T00:03:13.011Z,86.80
2018-04-25T00:05:41.679Z,86.70
2018-04-25T00:08:09.173Z,87.80
2018-04-25T00:10:38.792Z,87.00
2018-04-25T00:13:06.507Z,86.70
2018-04-25T00:15:34.014Z,86.80
2018-04-25T00:18:01.797Z,86.80
2018-04-25T00:20:29.920Z,86.70
2018-04-25T00:22:58.518Z,86.20
2018-04-25T00:25:26.041Z,86.60
2018-04-25T00:27:53.727Z,85.90
2018-04-25T00:30:21.521Z,85.50
2018-04-25T00:32:49.254Z,85.60
2018-04-25T00:35:17.933Z,85.70
2018-04-25T00:37:45.522Z,85.70
2018-04-25T00:40:20.490Z,85.80
2018-04-25T00:42:52.615Z,85.70
2018-04-25T00:45:26.848Z,85.80
2018-04-25T00:48:00.114Z,85.80
2018-04-25T00:50:28.150Z,85.70
2018-04-25T00:53:20.262Z,85.60
2018-04-25T00:55:58.432Z,85.80
2018-04-25T00:58:31.743Z,85.80
2018-04-25T01:01:02.906Z,85.80
2018-04-25T01:06:28.201Z,85.90
2018-04-25T01:08:59.957Z,85.80
2018-04-25T01:11:34.170Z,85.80
2018-04-25T01:14:02.867Z,85.90
2018-04-25T01:19:26.718Z,85.80
2018-04-25T01:21:58.112Z,85.70
2018-04-25T01:24:30.133Z,85.80
2018-04-25T01:27:08.042Z,85.60
2018-04-25T01:29:39.221Z,85.50
2018-04-25T01:32:07.347Z,85.20
2018-04-25T01:34:38.482Z,85.30
2018-04-25T01:37:20.058Z,85.40
2018-04-25T01:40:00.976Z,85.90
2018-04-25T01:45:46.334Z,85.90
2018-04-25T01:51:32.714Z,85.40
2018-04-25T01:54:13.116Z,85.30
2018-04-25T01:56:55.840Z,85.50
2018-04-25T01:59:40.946Z,85.50
2018-04-25T02:02:27.743Z,85.50
2018-04-25T02:05:01.742Z,85.50
2018-04-25T02:07:30.420Z,85.80
2018-04-25T02:09:58.218Z,85.90
2018-04-25T02:12:25.942Z,86.00
2018-04-25T02:14:54.609Z,85.90
2018-04-25T02:17:25.130Z,86.20
2018-04-25T02:19:59.652Z,86.10
2018-04-25T02:22:33.872Z,86.10
2018-04-25T02:25:04.462Z,86.20
2018-04-25T02:27:32.180Z,86.10
2018-04-25T02:30:03.060Z,86.30
2018-04-25T02:32:30.774Z,86.50
2018-04-25T02:34:58.301Z,86.70
2018-04-25T02:37:26.044Z,86.70
2018-04-25T02:39:57.143Z,86.50
2018-04-25T02:42:25.935Z,86.30
2018-04-25T02:45:08.275Z,85.90
2018-04-25T02:47:41.658Z,85.60
2018-04-25T02:50:10.949Z,85.40
2018-04-25T02:52:38.461Z,85.40
2018-04-25T02:55:07.113Z,85.20
2018-04-25T02:57:35.771Z,85.40
2018-04-25T03:00:03.320Z,85.20
2018-04-25T03:02:35.941Z,85.20
2018-04-25T03:05:06.129Z,85.20
2018-04-25T03:07:34.825Z,85.20
2018-04-25T03:10:06.915Z,85.00
2018-04-25T03:12:34.406Z,84.80
2018-04-25T03:15:02.140Z,84.50
2018-04-25T03:17:34.182Z,84.60
2018-04-25T03:20:01.684Z,85.10
2018-04-25T03:22:29.409Z,85.80
2018-04-25T03:25:00.573Z,86.20
2018-04-25T03:27:31.077Z,86.80
2018-04-25T03:30:05.669Z,86.70
2018-04-25T03:32:37.662Z,86.40
2018-04-25T03:35:09.133Z,86.00
2018-04-25T03:37:36.634Z,87.50
2018-04-25T03:42:57.368Z,90.10
2018-04-25T03:45:29.391Z,90.60
2018-04-25T03:48:04.786Z,91.30
2018-04-25T03:50:49.114Z,91.80
2018-04-25T03:53:30.682Z,92.40
2018-04-25T03:56:04.669Z,93.20
2018-04-25T03:58:33.341Z,94.30
2018-04-25T04:01:08.552Z,95.90
2018-04-25T04:03:36.261Z,96.90
2018-04-25T04:06:14.141Z,97.80
2018-04-25T04:08:45.312Z,98.40
2018-04-25T04:11:23.827Z,98.80
2018-04-25T04:13:59.654Z,98.90
2018-04-25T04:16:29.238Z,98.90
2018-04-25T04:18:57.625Z,99.30
2018-04-25T04:21:38.182Z,99.30
2018-04-25T04:24:25.402Z,99.40
2018-04-25T04:26:58.126Z,99.60
2018-04-25T04:29:29.530Z,99.30
2018-04-25T04:32:13.778Z,99.40
2018-04-25T04:34:49.518Z,99.50
2018-04-25T04:37:26.557Z,99.40
2018-04-25T04:40:01.157Z,99.40
2018-04-25T04:42:28.922Z,99.30
2018-04-25T04:44:56.660Z,99.30
2018-04-25T04:47:24.454Z,99.30
2018-04-25T04:50:13.108Z,99.40
2018-04-25T04:52:45.776Z,99.50
2018-04-25T04:55:14.434Z,99.30
2018-04-25T04:57:45.402Z,99.30
2018-04-25T05:00:23.448Z,99.40
2018-04-25T05:03:09.937Z,99.40
2018-04-25T05:05:42.980Z,99.30
2018-04-25T05:08:12.595Z,99.10
2018-04-25T05:10:41.032Z,99.40
2018-04-25T05:13:22.796Z,99.40
2018-04-25T05:15:56.170Z,99.10
2018-04-25T05:18:43.205Z,98.90
2018-04-25T05:21:12.963Z,98.80
2018-04-25T05:23:47.450Z,98.70
2018-04-25T05:29:11.266Z,98.50
2018-04-25T05:31:48.703Z,98.50
2018-04-25T05:34:19.699Z,98.20
2018-04-25T05:36:54.455Z,98.00
2018-04-25T05:39:28.119Z,98.10
2018-04-25T05:41:55.847Z,97.70
2018-04-25T05:44:25.517Z,97.80
2018-04-25T05:46:53.359Z,98.10
2018-04-25T05:49:23.623Z,97.90
2018-04-25T05:51:51.276Z,97.20
2018-04-25T05:54:29.932Z,97.10
2018-04-25T05:56:57.864Z,96.90
2018-04-25T05:59:29.385Z,96.90
2018-04-25T06:02:06.850Z,97.10
2018-04-25T06:04:35.684Z,97.10
2018-04-25T06:07:06.044Z,97.30
2018-04-25T06:09:33.668Z,97.10
2018-04-25T06:12:05.301Z,97.60
2018-04-25T06:14:42.031Z,96.90
2018-04-25T06:17:14.715Z,96.60
2018-04-25T06:19:42.390Z,96.50
2018-04-25T06:25:03.410Z,95.00
2018-04-25T06:27:48.617Z,95.30
2018-04-25T06:30:20.170Z,95.40
2018-04-25T06:32:51.000Z,95.30
2018-04-25T06:35:30.400Z,95.60
2018-04-25T06:38:02.282Z,95.50
2018-04-25T06:40:39.804Z,95.50
2018-04-25T06:43:12.163Z,94.90
2018-04-25T06:45:40.958Z,94.90
2018-04-25T06:48:09.574Z,94.80
2018-04-25T06:50:42.245Z,93.60
2018-04-25T06:53:10.925Z,93.10
2018-04-25T06:55:39.600Z,93.40
2018-04-25T06:58:29.531Z,92.10
2018-04-25T07:01:09.331Z,92.10
2018-04-25T07:03:40.153Z,91.30
2018-04-25T07:06:12.114Z,91.30
2018-04-25T07:08:53.072Z,91.20
2018-04-25T07:14:15.100Z,90.40
2018-04-25T07:16:48.645Z,90.90
2018-04-25T07:19:28.099Z,91.30
2018-04-25T07:22:02.571Z,90.60
2018-04-25T07:24:30.094Z,91.00
2018-04-25T07:27:04.287Z,90.30
2018-04-25T07:29:33.944Z,90.30
2018-04-25T07:32:05.572Z,89.30
2018-04-25T07:34:34.054Z,88.30
2018-04-25T07:37:07.329Z,89.00
2018-04-25T07:39:34.890Z,89.00
2018-04-25T07:42:13.577Z,87.80
2018-04-25T07:44:46.669Z,87.80
2018-04-25T07:47:14.390Z,87.80
2018-04-25T07:49:48.683Z,87.20
2018-04-25T07:52:26.232Z,88.60
2018-04-25T07:54:53.974Z,88.30
2018-04-25T07:57:22.654Z,88.80
2018-04-25T07:59:52.842Z,88.10
2018-04-25T08:02:20.349Z,88.80
2018-04-25T08:04:48.047Z,89.60
2018-04-25T08:07:17.697Z,89.10
2018-04-25T08:09:46.353Z,88.90
2018-04-25T08:12:27.082Z,88.70
2018-04-25T08:15:06.416Z,89.10
2018-04-25T08:17:58.602Z,88.90
2018-04-25T08:23:18.074Z,88.40
2018-04-25T08:25:48.867Z,86.80
2018-04-25T08:28:16.620Z,86.90
2018-04-25T08:30:46.231Z,87.40
2018-04-25T08:33:34.651Z,87.00
2018-04-25T08:36:07.712Z,87.00
2018-04-25T08:38:51.215Z,84.90
2018-04-25T08:41:18.757Z,83.30
2018-04-25T08:43:47.433Z,84.10
2018-04-25T08:46:19.549Z,83.70
2018-04-25T08:48:47.322Z,82.40
2018-04-25T08:51:15.032Z,82.40
2018-04-25T08:53:47.116Z,83.00
2018-04-25T08:56:26.195Z,83.40
2018-04-25T08:58:55.912Z,83.40
2018-04-25T09:01:23.605Z,83.00
2018-04-25T09:03:52.290Z,81.00
2018-04-25T09:06:21.918Z,80.30
2018-04-25T09:08:51.495Z,80.80
2018-04-25T09:11:30.945Z,79.10
2018-04-25T09:14:10.739Z,78.80
2018-04-25T09:16:39.394Z,76.90
2018-04-25T09:19:09.674Z,77.20
2018-04-25T09:21:37.381Z,77.20
2018-04-25T09:24:05.770Z,75.40
2018-04-25T09:26:38.127Z,75.40
2018-04-25T09:29:05.653Z,73.70
2018-04-25T09:31:34.775Z,76.10
2018-04-25T09:34:26.968Z,74.50
2018-04-25T09:37:03.257Z,73.60
2018-04-25T09:39:36.867Z,76.40
2018-04-25T09:42:12.346Z,78.30
2018-04-25T09:44:44.698Z,78.60
2018-04-25T09:47:16.170Z,79.30
2018-04-25T09:49:47.917Z,79.70
2018-04-25T09:52:17.537Z,79.70
2018-04-25T09:54:45.896Z,83.10
2018-04-25T09:57:21.314Z,83.00
2018-04-25T09:59:53.408Z,82.30
2018-04-25T10:02:33.361Z,82.60
2018-04-25T10:05:03.072Z,84.10
2018-04-25T10:07:48.940Z,83.00
2018-04-25T10:10:28.986Z,81.50
2018-04-25T10:13:21.095Z,78.90
2018-04-25T10:15:54.635Z,78.20
2018-04-25T10:18:28.249Z,79.10
2018-04-25T10:20:57.948Z,79.50
2018-04-25T10:23:46.893Z,79.30
2018-04-25T10:26:14.585Z,80.40
2018-04-25T10:31:43.914Z,76.30
2018-04-25T10:34:30.364Z,76.20
2018-04-25T10:36:57.963Z,73.30
2018-04-25T10:39:25.648Z,74.90
2018-04-25T10:42:08.109Z,74.40
2018-04-25T10:44:41.483Z,74.80
2018-04-25T10:47:10.765Z,74.50
2018-04-25T10:49:50.477Z,74.50
2018-04-25T10:55:11.942Z,73.90
2018-04-25T10:57:54.902Z,73.00
2018-04-25T11:00:23.421Z,72.10
2018-04-25T11:02:51.109Z,70.80
2018-04-25T11:05:29.619Z,70.10
2018-04-25T11:08:02.628Z,70.90
2018-04-25T11:10:40.242Z,70.10
2018-04-25T11:13:12.281Z,68.60
2018-04-25T11:15:41.980Z,68.60
2018-04-25T11:18:09.665Z,67.00
2018-04-25T11:20:41.770Z,67.40
2018-04-25T11:23:15.700Z,65.90
2018-04-25T11:25:44.313Z,65.90
2018-04-25T11:28:15.840Z,62.50
2018-04-25T11:30:48.777Z,62.50
2018-04-25T11:33:17.531Z,62.70
2018-04-25T11:35:45.204Z,63.60
2018-04-25T11:38:16.426Z,65.30
2018-04-25T11:40:45.742Z,63.60
2018-04-25T11:43:25.092Z,63.60
2018-04-25T11:45:58.384Z,64.10
2018-04-25T11:48:25.974Z,60.90
2018-04-25T11:50:55.481Z,61.10
2018-04-25T11:53:24.931Z,61.00
2018-04-25T11:55:57.607Z,61.00
2018-04-25T11:58:27.047Z,60.40
2018-04-25T12:00:55.733Z,62.20
2018-04-25T12:03:33.731Z,61.60
2018-04-25T12:06:04.500Z,62.90
2018-04-25T12:08:49.706Z,61.60
2018-04-25T12:11:18.247Z,61.70
2018-04-25T12:14:03.344Z,58.70
2018-04-25T12:16:30.855Z,59.60
2018-04-25T12:18:59.579Z,60.40
2018-04-25T12:21:31.007Z,59.90
2018-04-25T12:23:59.761Z,59.80
2018-04-25T12:26:45.817Z,59.80
2018-04-25T12:29:18.327Z,62.10
2018-04-25T12:31:51.884Z,63.00
2018-04-25T12:34:20.645Z,62.80
2018-04-25T12:36:50.198Z,63.70
2018-04-25T12:39:28.345Z,61.60
2018-04-25T12:41:59.289Z,60.50
2018-04-25T12:44:32.490Z,58.50
2018-04-25T12:47:06.835Z,58.50
2018-04-25T12:49:36.352Z,57.40
2018-04-25T12:52:03.874Z,57.40
2018-04-25T12:54:33.477Z,57.90
2018-04-25T12:57:01.396Z,58.90
2018-04-25T12:59:28.999Z,59.90
2018-04-25T13:01:56.750Z,59.40
2018-04-25T13:04:24.494Z,59.20
2018-04-25T13:06:53.893Z,59.80
2018-04-25T13:09:23.414Z,60.30
2018-04-25T13:11:52.127Z,60.20
2018-04-25T13:14:19.884Z,60.40
2018-04-25T13:16:48.555Z,61.30
2018-04-25T13:19:19.087Z,61.30
2018-04-25T13:21:48.000Z,62.80
2018-04-25T13:24:16.760Z,62.70
2018-04-25T13:26:50.084Z,60.40
2018-04-25T13:29:17.870Z,60.80
2018-04-25T13:31:45.609Z,62.00
2018-04-25T13:34:17.960Z,62.20
2018-04-25T13:36:50.424Z,60.40
2018-04-25T13:39:20.527Z,59.80
2018-04-25T13:42:01.198Z,60.60
2018-04-25T13:44:29.919Z,60.30
2018-04-25T13:47:03.275Z,61.20
2018-04-25T13:49:37.745Z,61.90
2018-04-25T13:52:06.702Z,59.80
2018-04-25T13:54:37.709Z,59.20
2018-04-25T13:57:10.570Z,61.60
2018-04-25T13:59:38.410Z,60.60
2018-04-25T14:02:07.122Z,62.50
2018-04-25T14:04:40.294Z,61.30
2018-04-25T14:07:12.073Z,62.00
2018-04-25T14:09:43.902Z,62.00
2018-04-25T14:12:19.249Z,63.70
2018-04-25T14:14:47.143Z,63.70
2018-04-25T14:17:16.721Z,63.60
2018-04-25T14:19:58.143Z,63.70
2018-04-25T14:22:25.715Z,61.90
2018-04-25T14:24:54.369Z,61.00
2018-04-25T14:27:24.061Z,58.80
2018-04-25T14:30:03.842Z,56.30
2018-04-25T14:32:31.530Z,56.30
2018-04-25T14:35:00.777Z,57.00
2018-04-25T14:37:34.081Z,56.90
2018-04-25T14:40:10.445Z,56.90
2018-04-25T14:42:39.229Z,57.20
2018-04-25T14:45:12.241Z,56.00
2018-04-25T14:47:41.683Z,56.00
2018-04-25T14:50:22.983Z,56.30
2018-04-25T14:52:51.800Z,56.20
2018-04-25T14:55:29.036Z,57.60
2018-04-25T14:57:57.670Z,57.60
2018-04-25T15:00:33.829Z,56.50
2018-04-25T15:03:03.758Z,56.60
2018-04-25T15:05:34.366Z,57.40
2018-04-25T15:08:12.655Z,57.90
2018-04-25T15:10:47.714Z,57.00
2018-04-25T15:13:15.344Z,57.70
2018-04-25T15:15:44.930Z,56.80
2018-04-25T15:18:16.463Z,56.20
2018-04-25T15:20:44.797Z,56.80
2018-04-25T15:23:12.552Z,56.80
2018-04-25T15:25:42.153Z,57.60
2018-04-25T15:28:11.331Z,55.30
2018-04-25T15:30:39.809Z,54.90
2018-04-25T15:33:08.497Z,54.60
2018-04-25T15:35:37.155Z,54.90
2018-04-25T15:38:04.712Z,56.60
2018-04-25T15:40:34.244Z,55.20
2018-04-25T15:43:02.925Z,55.20
2018-04-25T15:45:30.683Z,54.90
2018-04-25T15:48:05.500Z,57.20
2018-04-25T15:50:36.902Z,57.20
2018-04-25T15:53:05.706Z,57.40
2018-04-25T15:55:37.100Z,56.80
2018-04-25T15:58:24.894Z,56.20
2018-04-25T16:01:00.123Z,57.00
2018-04-25T16:03:29.631Z,56.50
2018-04-25T16:05:59.189Z,56.30
2018-04-25T16:08:27.992Z,56.10
2018-04-25T16:11:07.371Z,56.80
2018-04-25T16:13:35.090Z,56.80
2018-04-25T16:16:03.497Z,56.00
2018-04-25T16:18:37.479Z,56.00
2018-04-25T16:21:09.566Z,56.80
2018-04-25T16:23:42.198Z,56.70
2018-04-25T16:26:10.802Z,56.90
2018-04-25T16:28:46.643Z,57.70
2018-04-25T16:31:17.713Z,58.40
2018-04-25T16:33:45.231Z,58.30
2018-04-25T16:36:13.961Z,58.60
2018-04-25T16:38:44.892Z,57.60
2018-04-25T16:41:13.664Z,57.60
2018-04-25T16:43:42.623Z,57.80
2018-04-25T16:46:18.076Z,57.90
2018-04-25T16:48:46.149Z,57.80
2018-04-25T16:51:14.940Z,58.80
2018-04-25T16:53:56.494Z,58.60
2018-04-25T16:56:25.236Z,57.90
2018-04-25T16:58:58.157Z,56.80
2018-04-25T17:01:25.995Z,57.30
2018-04-25T17:04:04.453Z,57.10
2018-04-25T17:06:35.640Z,58.20
2018-04-25T17:09:05.173Z,58.40
2018-04-25T17:11:32.740Z,58.20
2018-04-25T17:14:06.944Z,58.40
2018-04-25T17:16:40.593Z,59.00
2018-04-25T17:19:16.196Z,59.40
2018-04-25T17:21:45.864Z,59.10
2018-04-25T17:24:13.576Z,59.10
2018-04-25T17:26:43.256Z,60.40
2018-04-25T17:29:10.962Z,61.80
2018-04-25T17:31:40.579Z,62.50
2018-04-25T17:34:08.188Z,62.90
2018-04-25T17:36:36.780Z,63.80
2018-04-25T17:39:08.521Z,65.00
2018-04-25T17:41:36.227Z,65.90
2018-04-25T17:44:14.803Z,66.10
2018-04-25T17:46:49.004Z,67.20
2018-04-25T17:49:20.129Z,67.30
2018-04-25T17:51:47.685Z,68.20
2018-04-25T17:54:15.413Z,68.20
2018-04-25T17:56:43.182Z,68.80
2018-04-25T17:59:10.914Z,68.90
2018-04-25T18:01:43.366Z,69.20
2018-04-25T18:04:11.993Z,69.00
2018-04-25T18:06:41.596Z,69.60
2018-04-25T18:09:19.156Z,68.30
2018-04-25T18:11:48.784Z,68.20
2018-04-25T18:14:30.128Z,68.60
2018-04-25T18:17:05.831Z,68.40
2018-04-25T18:19:41.586Z,69.30
2018-04-25T18:22:11.208Z,70.10
2018-04-25T18:24:38.963Z,68.90
2018-04-25T18:27:06.719Z,68.50
2018-04-25T18:29:40.917Z,68.10
2018-04-25T18:32:08.701Z,68.20
2018-04-25T18:35:01.583Z,68.40
2018-04-25T18:37:34.669Z,68.40
2018-04-25T18:40:07.051Z,70.00
2018-04-25T18:42:34.810Z,69.90
2018-04-25T18:45:05.931Z,70.10
2018-04-25T18:47:33.684Z,70.00
2018-04-25T18:50:01.458Z,71.00
2018-04-25T18:52:29.216Z,71.10
2018-04-25T18:54:56.988Z,71.40
2018-04-25T18:57:25.637Z,71.70
2018-04-25T18:59:54.354Z,71.20
2018-04-25T19:02:26.017Z,71.20
2018-04-25T19:04:54.829Z,71.50
2018-04-25T19:07:23.250Z,72.10
2018-04-25T19:09:50.932Z,72.00
2018-04-25T19:12:24.909Z,73.10
2018-04-25T19:14:52.595Z,73.20
2018-04-25T19:17:21.917Z,74.10
2018-04-25T19:19:54.909Z,74.10
2018-04-25T19:22:22.725Z,73.40
2018-04-25T19:24:54.735Z,74.10
2018-04-25T19:27:22.578Z,73.90
2018-04-25T19:29:50.288Z,73.10
2018-04-25T19:32:18.048Z,73.20
2018-04-25T19:34:51.960Z,72.00
2018-04-25T19:37:23.632Z,70.80
2018-04-25T19:39:57.012Z,70.10
2018-04-25T19:42:35.518Z,69.80
2018-04-25T19:45:08.807Z,69.40
2018-04-25T19:47:36.698Z,69.50
2018-04-25T19:50:10.794Z,69.30
2018-04-25T19:52:46.325Z,69.50
2018-04-25T19:55:15.858Z,69.70
2018-04-25T19:57:43.595Z,69.60
2018-04-25T20:00:15.412Z,69.90
2018-04-25T20:02:43.179Z,70.20
2018-04-25T20:05:23.139Z,70.30
2018-04-25T20:07:50.701Z,71.00
2018-04-25T20:10:18.418Z,71.90
2018-04-25T20:12:46.257Z,70.90
2018-04-25T20:15:13.946Z,71.30
2018-04-25T20:17:42.307Z,70.70
2018-04-25T20:20:11.113Z,70.90
2018-04-25T20:22:43.476Z,71.60
2018-04-25T20:25:11.815Z,72.40
2018-04-25T20:27:40.516Z,72.40
2018-04-25T20:30:10.182Z,71.90
2018-04-25T20:32:37.797Z,71.50
2018-04-25T20:35:13.064Z,71.40
2018-04-25T20:37:42.593Z,71.40
2018-04-25T20:40:15.954Z,71.10
2018-04-25T20:42:44.282Z,71.50
2018-04-25T20:45:12.192Z,71.50
2018-04-25T20:47:39.772Z,71.30
2018-04-25T20:50:08.528Z,71.30
2018-04-25T20:52:36.911Z,71.90
2018-04-25T20:55:06.479Z,71.80
2018-04-25T20:57:35.436Z,72.20
2018-04-25T21:00:03.311Z,72.50
2018-04-25T21:02:36.845Z,72.60
2018-04-25T21:05:12.864Z,73.10
2018-04-25T21:07:57.458Z,73.10
2018-04-25T21:10:25.292Z,72.90
2018-04-25T21:12:55.618Z,73.00
2018-04-25T21:15:26.140Z,73.00
2018-04-25T21:17:58.435Z,73.10
2018-04-25T21:20:26.164Z,72.90
2018-04-25T21:22:58.841Z,73.10
2018-04-25T21:25:28.518Z,73.10
2018-04-25T21:27:56.484Z,73.20
2018-04-25T21:30:25.410Z,73.40
2018-04-25T21:32:56.996Z,73.40
2018-04-25T21:35:24.602Z,73.10
2018-04-25T21:37:52.253Z,74.20
2018-04-25T21:40:20.024Z,74.00
2018-04-25T21:42:54.205Z,74.20
2018-04-25T21:45:25.410Z,74.20
2018-04-25T21:47:57.403Z,74.20
2018-04-25T21:50:26.134Z,74.50
2018-04-25T21:52:54.066Z,74.50
2018-04-25T21:55:21.602Z,74.60
2018-04-25T21:57:51.004Z,75.70
2018-04-25T22:00:18.800Z,75.30
2018-04-25T22:02:46.488Z,75.90
2018-04-25T22:05:24.982Z,75.50
2018-04-25T22:07:53.675Z,75.30
2018-04-25T22:10:23.309Z,76.20
2018-04-25T22:12:55.421Z,75.80
2018-04-25T22:15:27.797Z,75.90
2018-04-25T22:17:55.481Z,75.90
2018-04-25T22:20:25.220Z,76.10
2018-04-25T22:22:52.845Z,76.50
2018-04-25T22:25:23.983Z,76.70
2018-04-25T22:27:52.411Z,76.30
2018-04-25T22:30:26.760Z,76.30
2018-04-25T22:32:57.728Z,76.50
2018-04-25T22:35:29.512Z,76.00
2018-04-25T22:38:09.206Z,76.70
2018-04-25T22:40:51.701Z,77.20
2018-04-25T22:43:19.266Z,77.30
2018-04-25T22:45:46.990Z,77.00
2018-04-25T22:48:20.603Z,77.00
2018-04-25T22:50:52.380Z,76.60
2018-04-25T22:53:25.039Z,77.20
2018-04-25T22:55:52.837Z,77.10
2018-04-25T22:58:20.545Z,77.90
2018-04-25T23:00:48.067Z,77.60
2018-04-25T23:03:21.893Z,77.70
2018-04-25T23:06:06.566Z,78.40
2018-04-25T23:08:40.496Z,78.00
2018-04-25T23:11:09.182Z,78.00
2018-04-25T23:13:42.191Z,78.80
2018-04-25T23:16:17.611Z,78.70
2018-04-25T23:18:47.193Z,78.90
2018-04-25T23:21:14.714Z,79.10
2018-04-25T23:23:55.348Z,78.90
2018-04-25T23:26:29.043Z,79.30
2018-04-25T23:28:57.676Z,79.20
2018-04-25T23:31:25.430Z,79.10
2018-04-25T23:33:54.100Z,79.50
2018-04-25T23:36:38.990Z,79.70
2018-04-25T23:39:08.737Z,80.80
2018-04-25T23:41:38.250Z,80.40
2018-04-25T23:44:08.836Z,80.60
2018-04-25T23:46:36.565Z,81.00
2018-04-25T23:49:05.304Z,81.00
2018-04-25T23:51:47.102Z,81.10
2018-04-25T23:54:15.870Z,81.30
2018-04-25T23:56:50.362Z,81.30
2018-04-25T23:59:24.896Z,81.60
